createdAt,value
2023-04-02T00:00:10.734Z,97252.94
2023-04-02T00:02:47.956Z,97258.59
2023-04-02T00:05:14.178Z,97263.34
2023-04-02T00:07:40.581Z,97257.34
2023-04-02T00:10:35.684Z,97256.53
2023-04-02T00:13:11.101Z,97263.69
2023-04-02T00:15:39.614Z,97264.28
2023-04-02T00:18:06.998Z,97264.63
2023-04-02T00:20:38.005Z,97270.06
2023-04-02T00:23:05.490Z,97270.63
2023-04-02T00:25:34.846Z,97275.84
2023-04-02T00:28:03.659Z,97279.09
2023-04-02T00:30:30.223Z,97281.50
2023-04-02T00:32:56.725Z,97287.88
2023-04-02T00:35:26.770Z,97289.16
2023-04-02T00:37:53.533Z,97292.03
2023-04-02T00:40:29.123Z,97290.41
2023-04-02T00:42:59.134Z,97291.81
2023-04-02T00:45:36.685Z,97291.56
2023-04-02T00:48:30.952Z,97289.59
2023-04-02T00:51:01.207Z,97291.13
2023-04-02T00:53:30.151Z,97293.78
2023-04-02T00:55:58.671Z,97288.91
2023-04-02T00:58:31.852Z,97283.00
2023-04-02T01:00:59.584Z,97285.69
2023-04-02T01:03:30.454Z,97288.69
2023-04-02T01:06:09.506Z,97300.59
2023-04-02T01:09:03.288Z,97303.59
2023-04-02T01:11:41.682Z,97298.97
2023-04-02T01:14:38.404Z,97303.72
2023-04-02T01:17:23.057Z,97302.44
2023-04-02T01:20:11.381Z,97311.69
2023-04-02T01:22:49.876Z,97309.03
2023-04-02T01:25:32.056Z,97309.28
2023-04-02T01:28:11.556Z,97303.50
2023-04-02T01:30:38.085Z,97310.31
2023-04-02T01:33:05.938Z,97310.06
2023-04-02T01:35:38.665Z,97315.00
2023-04-02T01:38:13.567Z,97318.94
2023-04-02T01:40:51.025Z,97323.00
2023-04-02T02:14:58.554Z,97347.63
2023-04-02T02:22:47.497Z,97353.41
2023-04-02T02:25:21.572Z,97352.59
2023-04-02T02:28:02.426Z,97363.91
2023-04-02T02:30:36.580Z,97370.50
2023-04-02T02:33:23.826Z,97364.13
2023-04-02T02:35:56.544Z,97375.81
2023-04-02T02:38:32.201Z,97371.41
2023-04-02T02:41:04.698Z,97375.81
2023-04-02T02:43:32.923Z,97380.53
2023-04-02T02:46:01.000Z,97381.94
2023-04-02T02:53:51.896Z,97388.00
2023-04-02T02:56:20.264Z,97390.66
2023-04-02T02:58:46.577Z,97390.66
2023-04-02T03:01:13.045Z,97397.25
2023-04-02T03:06:16.945Z,97407.66
2023-04-02T03:08:54.541Z,97408.56
2023-04-02T03:11:33.637Z,97406.34
2023-04-02T03:16:42.435Z,97410.72
2023-04-02T03:19:18.026Z,97416.03
2023-04-02T03:21:51.614Z,97420.53
2023-04-02T03:24:32.676Z,97425.03
2023-04-02T03:35:01.584Z,97437.88
2023-04-02T04:23:51.094Z,97479.38
2023-04-02T04:26:26.014Z,97485.34
2023-04-02T04:29:18.707Z,97490.66
2023-04-02T04:31:50.977Z,97489.19
2023-04-02T04:34:23.712Z,97490.34
2023-04-02T04:36:55.130Z,97491.03
2023-04-02T04:39:28.782Z,97501.22
2023-04-02T04:41:59.518Z,97502.63
2023-04-02T04:44:51.617Z,97508.88
2023-04-02T04:47:23.926Z,97511.34
2023-04-02T04:50:19.451Z,97524.44
2023-04-02T04:52:45.917Z,97521.38
2023-04-02T04:55:38.525Z,97522.19
2023-04-02T04:58:42.933Z,97521.59
2023-04-02T05:01:53.759Z,97527.09
2023-04-02T05:04:32.102Z,97526.50
2023-04-02T05:09:49.894Z,97533.44
2023-04-02T05:12:31.434Z,97537.31
2023-04-02T05:15:12.709Z,97550.22
2023-04-02T05:18:00.977Z,97543.06
2023-04-02T05:20:31.458Z,97553.25
2023-04-02T05:23:05.640Z,97558.81
2023-04-02T05:25:32.899Z,97556.59
2023-04-02T05:28:15.689Z,97561.09
2023-04-02T05:30:52.228Z,97565.38
2023-04-02T05:33:18.464Z,97563.50
2023-04-02T05:35:48.356Z,97572.91
2023-04-02T05:38:27.773Z,97575.56
2023-04-02T05:41:05.279Z,97581.09
2023-04-02T05:43:35.208Z,97576.81
2023-04-02T05:46:15.224Z,97586.84
2023-04-02T05:59:29.939Z,97594.28
2023-04-02T06:02:08.289Z,97599.66
2023-04-02T06:04:46.790Z,97609.41
2023-04-02T07:19:46.643Z,97694.88
2023-04-02T07:27:29.373Z,97701.63
2023-04-02T07:29:55.693Z,97711.50
2023-04-02T07:32:21.986Z,97718.53
2023-04-02T07:34:48.278Z,97712.47
2023-04-02T07:37:14.675Z,97721.28
2023-04-02T07:39:40.996Z,97717.94
2023-04-02T08:07:21.411Z,97767.72
2023-04-02T10:31:27.352Z,98026.63
2023-04-02T10:34:02.992Z,98028.06
2023-04-02T10:36:50.911Z,98029.47
2023-04-02T10:39:25.443Z,98031.53
2023-04-02T10:42:06.985Z,98042.56
2023-04-02T10:44:54.320Z,98040.94
2023-04-02T10:47:40.127Z,98052.19
2023-04-02T10:50:49.630Z,98048.28
2023-04-02T10:53:18.592Z,98051.38
2023-04-02T10:55:51.724Z,98064.81
2023-04-02T10:58:25.170Z,98057.84
2023-04-02T11:00:56.607Z,98065.16
2023-04-02T11:03:40.466Z,98083.16
2023-04-02T11:06:22.354Z,98078.22
2023-04-02T11:08:51.693Z,98076.34
2023-04-02T11:11:32.001Z,98086.56
2023-04-02T11:14:01.072Z,98092.03
2023-04-02T11:16:28.092Z,98091.56
2023-04-02T11:19:16.240Z,98098.56
2023-04-02T11:21:57.145Z,98096.75
2023-04-02T11:24:31.707Z,98098.13
2023-04-02T11:27:10.194Z,98112.66
2023-04-02T11:29:45.924Z,98121.03
2023-04-02T11:32:28.810Z,98120.44
2023-04-02T11:35:05.896Z,98116.38
2023-04-02T11:37:45.564Z,98117.38
2023-04-02T11:40:11.801Z,98123.75
2023-04-02T11:42:48.880Z,98126.81
2023-04-02T11:45:21.499Z,98136.81
2023-04-02T11:48:17.336Z,98133.97
2023-04-02T11:50:45.515Z,98128.44
2023-04-02T11:53:11.934Z,98134.38
2023-04-02T11:55:39.628Z,98142.16
2023-04-02T11:58:28.162Z,98149.75
2023-04-02T12:01:06.675Z,98159.94
2023-04-02T12:04:01.181Z,98161.78
2023-04-02T12:06:42.869Z,98164.44
2023-04-02T12:09:22.714Z,98167.47
2023-04-02T12:11:52.098Z,98180.19
2023-04-02T12:14:45.728Z,98182.06
2023-04-02T12:17:24.307Z,98178.16
2023-04-02T12:19:58.341Z,98182.00
2023-04-02T12:22:31.023Z,98186.13
2023-04-02T12:25:21.728Z,98187.56
2023-04-02T12:27:49.040Z,98194.06
2023-04-02T12:30:21.555Z,98199.72
2023-04-02T12:32:48.474Z,98194.41
2023-04-02T12:35:28.694Z,98210.56
2023-04-02T12:37:55.008Z,98212.19
2023-04-02T12:40:21.379Z,98217.31
2023-04-02T12:42:47.684Z,98217.13
2023-04-02T12:45:27.124Z,98214.88
2023-04-02T12:47:55.334Z,98232.22
2023-04-02T12:50:22.826Z,98224.47
2023-04-02T12:52:54.763Z,98225.50
2023-04-02T12:55:24.391Z,98221.41
2023-04-02T12:57:56.200Z,98228.56
2023-04-02T13:00:22.423Z,98232.03
2023-04-02T13:05:56.307Z,98224.94
2023-04-02T13:08:26.037Z,98232.84
2023-04-02T13:10:55.542Z,98228.34
2023-04-02T13:13:28.939Z,98247.38
2023-04-02T13:16:17.075Z,98243.28
2023-04-02T13:18:46.210Z,98247.63
2023-04-02T13:21:21.371Z,98248.69
2023-04-02T13:23:47.645Z,98252.91
2023-04-02T13:26:21.485Z,98258.19
2023-04-02T13:28:59.887Z,98255.03
2023-04-02T13:43:17.078Z,98267.28
2023-04-02T13:45:45.689Z,98268.91
2023-04-02T13:48:16.046Z,98266.16
2023-04-02T13:50:42.555Z,98279.03
2023-04-02T14:01:07.723Z,98284.72
2023-04-02T14:03:34.264Z,98294.03
2023-04-02T14:06:19.066Z,98302.44
2023-04-02T14:08:56.546Z,98309.19
2023-04-02T14:11:38.984Z,98316.63
2023-04-02T14:14:10.951Z,98317.31
2023-04-02T14:16:50.278Z,98313.84
2023-04-02T14:19:34.628Z,98330.09
2023-04-02T14:22:09.041Z,98339.69
2023-04-02T14:25:01.588Z,98336.66
2023-04-02T14:27:46.710Z,98345.28
2023-04-02T14:30:27.400Z,98341.31
2023-04-02T14:33:21.341Z,98352.06
2023-04-02T14:35:57.763Z,98357.25
2023-04-02T14:38:33.548Z,98356.94
2023-04-02T14:41:07.421Z,98365.41
2023-04-02T14:43:54.029Z,98371.25
2023-04-02T14:46:25.469Z,98368.38
2023-04-02T14:49:13.148Z,98378.63
2023-04-02T14:51:53.619Z,98377.81
2023-04-02T14:54:35.303Z,98390.31
2023-04-02T14:57:11.146Z,98388.03
2023-04-02T14:59:56.232Z,98386.47
2023-04-02T15:02:34.335Z,98386.28
2023-04-02T15:05:11.586Z,98387.28
2023-04-02T15:07:59.427Z,98392.78
2023-04-02T15:10:32.352Z,98404.56
2023-04-02T15:13:02.909Z,98399.69
2023-04-02T15:15:42.971Z,98412.13
2023-04-02T15:18:12.757Z,98409.59
2023-04-02T15:20:49.786Z,98419.72
2023-04-02T15:23:31.284Z,98424.47
2023-04-02T15:26:12.196Z,98417.97
2023-04-02T15:28:42.861Z,98425.28
2023-04-02T15:31:13.605Z,98430.94
2023-04-02T15:34:05.293Z,98437.88
2023-04-02T15:37:01.443Z,98426.94
2023-04-02T15:39:38.833Z,98438.34
2023-04-02T15:42:29.153Z,98439.72
2023-04-02T15:45:07.405Z,98444.16
2023-04-02T15:47:53.961Z,98442.63
2023-04-02T15:50:53.843Z,98450.84
2023-04-02T15:53:34.086Z,98460.53
2023-04-02T15:56:41.882Z,98457.88
2023-04-02T15:59:30.472Z,98471.31
2023-04-02T16:02:15.592Z,98473.59
2023-04-02T16:04:50.045Z,98468.81
2023-04-02T16:07:45.316Z,98480.16
2023-04-02T16:10:22.499Z,98492.22
2023-04-02T16:12:57.065Z,98489.09
2023-04-02T16:15:40.426Z,98479.88
2023-04-02T16:18:31.875Z,98496.88
2023-04-02T16:21:01.566Z,98509.81
2023-04-02T16:23:36.931Z,98500.63
2023-04-02T16:26:26.106Z,98509.03
2023-04-02T16:29:12.360Z,98507.22
2023-04-02T16:31:49.973Z,98512.69
2023-04-02T16:34:33.786Z,98518.59
2023-04-02T16:37:27.582Z,98517.94
2023-04-02T16:40:18.677Z,98517.28
2023-04-02T16:43:15.973Z,98530.00
2023-04-02T16:46:00.173Z,98527.72
2023-04-02T16:48:32.268Z,98523.56
2023-04-02T16:51:13.899Z,98537.97
2023-04-02T16:54:01.669Z,98533.50
2023-04-02T16:56:59.728Z,98535.41
2023-04-02T16:59:41.120Z,98545.88
2023-04-02T17:02:37.778Z,98543.44
2023-04-02T17:05:22.518Z,98551.16
2023-04-02T17:07:51.729Z,98547.22
2023-04-02T17:10:45.216Z,98553.09
2023-04-02T17:13:26.605Z,98561.75
2023-04-02T17:16:11.702Z,98565.66
2023-04-02T17:18:41.592Z,98577.88
2023-04-02T17:21:13.662Z,98580.97
2023-04-02T17:23:56.336Z,98590.38
2023-04-02T17:26:27.227Z,98599.03
2023-04-02T17:28:57.041Z,98592.09
2023-04-02T17:31:31.172Z,98596.56
2023-04-02T17:33:57.521Z,98602.50
2023-04-02T17:36:38.889Z,98612.59
2023-04-02T17:39:22.745Z,98612.47
2023-04-02T17:41:57.806Z,98613.78
2023-04-02T17:44:48.454Z,98617.09
2023-04-02T17:47:14.741Z,98616.81
2023-04-02T17:50:01.276Z,98620.50
2023-04-02T17:52:45.728Z,98630.06
2023-04-02T17:55:27.817Z,98626.00
2023-04-02T17:58:17.080Z,98634.75
2023-04-02T18:01:05.383Z,98636.91
2023-04-02T18:03:37.894Z,98635.91
2023-04-02T18:06:25.705Z,98653.91
2023-04-02T18:09:02.561Z,98666.13
2023-04-02T18:12:01.931Z,98669.63
2023-04-02T18:14:51.995Z,98675.25
2023-04-02T18:17:53.223Z,98681.19
2023-04-02T18:20:38.303Z,98687.44
2023-04-02T18:23:10.928Z,98689.41
2023-04-02T18:25:58.385Z,98703.44
2023-04-02T18:28:49.038Z,98706.09
2023-04-02T18:31:27.072Z,98708.44
2023-04-02T18:34:12.524Z,98717.66
2023-04-02T18:37:14.425Z,98720.63
2023-04-02T18:40:10.946Z,98723.94
2023-04-02T18:42:44.566Z,98716.81
2023-04-02T18:45:43.084Z,98736.31
2023-04-02T18:48:34.088Z,98748.34
2023-04-02T18:51:02.065Z,98745.25
2023-04-02T18:53:32.327Z,98743.25
2023-04-02T18:56:06.054Z,98751.16
2023-04-02T18:58:47.556Z,98753.97
2023-04-02T19:01:19.448Z,98750.31
2023-04-02T19:03:52.564Z,98766.97
2023-04-02T19:06:25.374Z,98770.25
2023-04-02T19:09:01.180Z,98767.63
2023-04-02T19:11:27.728Z,98787.25
2023-04-02T19:13:55.108Z,98778.16
2023-04-02T19:16:29.651Z,98784.59
2023-04-02T19:19:17.145Z,98784.28
2023-04-02T19:22:10.895Z,98796.00
2023-04-02T19:24:56.040Z,98796.41
2023-04-02T19:27:37.368Z,98801.84
2023-04-02T19:30:33.211Z,98802.38
2023-04-02T19:33:24.092Z,98813.56
2023-04-02T19:36:00.991Z,98815.84
2023-04-02T19:38:45.471Z,98819.66
2023-04-02T19:41:44.036Z,98823.28
2023-04-02T19:44:13.407Z,98835.97
2023-04-02T19:46:42.861Z,98834.69
2023-04-02T19:49:16.076Z,98838.97
2023-04-02T19:51:43.795Z,98832.03
2023-04-02T19:54:10.077Z,98836.00
2023-04-02T19:56:36.417Z,98839.31
2023-04-02T19:59:17.241Z,98840.13
2023-04-02T20:01:45.098Z,98845.75
2023-04-02T20:04:11.507Z,98846.88
2023-04-02T20:06:37.823Z,98851.03
2023-04-02T20:09:04.387Z,98852.81
2023-04-02T20:11:30.783Z,98860.72
2023-04-02T20:13:57.143Z,98867.28
2023-04-02T20:16:23.625Z,98866.47
2023-04-02T20:18:50.103Z,98864.50
2023-04-02T20:21:16.946Z,98873.69
2023-04-02T20:23:43.257Z,98874.50
2023-04-02T20:26:09.663Z,98875.66
2023-04-02T20:28:35.963Z,98872.25
2023-04-02T20:31:13.940Z,98872.59
2023-04-02T20:33:41.130Z,98877.72
2023-04-02T20:36:10.676Z,98881.03
2023-04-02T20:38:37.196Z,98881.69
2023-04-02T20:41:05.127Z,98896.06
2023-04-02T20:43:31.566Z,98892.44
2023-04-02T20:46:03.688Z,98899.69
2023-04-02T20:48:31.499Z,98906.94
2023-04-02T20:50:58.395Z,98898.72
2023-04-02T20:53:25.113Z,98905.66
2023-04-02T20:55:51.591Z,98910.91
2023-04-02T20:58:18.678Z,98912.97
2023-04-02T21:00:45.682Z,98918.91
2023-04-02T21:03:12.095Z,98926.50
2023-04-02T21:05:46.337Z,98926.00
2023-04-02T21:08:13.690Z,98916.44
2023-04-02T21:10:40.606Z,98925.16
2023-04-02T21:13:07.293Z,98924.53
2023-04-02T21:15:33.905Z,98929.34
2023-04-02T21:18:00.551Z,98933.44
2023-04-02T21:20:26.953Z,98933.28
2023-04-02T21:22:53.316Z,98926.66
2023-04-02T21:25:19.653Z,98924.84
2023-04-02T21:27:45.954Z,98925.31
2023-04-02T21:30:12.482Z,98926.59
2023-04-02T21:32:38.922Z,98935.50
2023-04-02T21:35:05.905Z,98937.03
2023-04-02T21:37:32.213Z,98937.16
2023-04-02T21:39:58.525Z,98949.34
2023-04-02T21:42:24.793Z,98944.56
2023-04-02T21:44:51.209Z,98947.88
2023-04-02T21:47:17.623Z,98948.53
2023-04-02T21:49:43.967Z,98947.94
2023-04-02T21:52:10.304Z,98949.09
2023-04-02T21:54:37.628Z,98948.41
2023-04-02T21:57:04.065Z,98952.56
2023-04-02T21:59:30.364Z,98953.22
2023-04-02T22:01:56.819Z,98959.81
2023-04-02T22:04:25.500Z,98952.03
2023-04-02T22:06:52.640Z,98960.09
2023-04-02T22:09:24.085Z,98956.63
2023-04-02T22:11:53.848Z,98954.59
2023-04-02T22:14:20.697Z,98960.56
2023-04-02T22:16:47.241Z,98959.22
2023-04-02T22:19:15.545Z,98969.06
2023-04-02T22:21:42.316Z,98967.84
2023-04-02T22:24:13.095Z,98969.06
2023-04-02T22:26:40.505Z,98964.63
2023-04-02T22:29:07.425Z,98972.53
2023-04-02T22:31:34.153Z,98975.00
2023-04-02T22:34:02.023Z,98971.06
2023-04-02T22:36:29.176Z,98973.91
2023-04-02T22:38:57.070Z,98966.97
2023-04-02T22:41:25.769Z,98965.84
2023-04-02T22:43:52.136Z,98981.16
2023-04-02T22:46:19.465Z,98977.69
2023-04-02T22:48:47.225Z,98972.63
2023-04-02T22:51:14.679Z,98969.81
2023-04-02T22:53:41.509Z,98972.63
2023-04-02T22:56:14.304Z,98979.66
2023-04-02T22:58:41.530Z,98974.34
2023-04-02T23:01:15.619Z,98969.88
2023-04-02T23:03:42.227Z,98967.91
2023-04-02T23:06:12.492Z,98971.69
2023-04-02T23:08:39.449Z,98977.81
2023-04-02T23:11:15.397Z,98977.28
2023-04-02T23:13:43.743Z,98978.78
2023-04-02T23:16:12.796Z,98977.19
2023-04-02T23:18:40.715Z,98983.78
2023-04-02T23:21:08.178Z,98981.16
2023-04-02T23:23:34.958Z,98984.78
2023-04-02T23:26:06.450Z,98985.97
2023-04-02T23:28:33.463Z,98982.81
2023-04-02T23:31:01.404Z,98987.25
2023-04-02T23:33:27.763Z,98988.56
2023-04-02T23:35:54.243Z,98980.97
2023-04-02T23:38:20.556Z,98980.44
2023-04-02T23:40:46.965Z,98982.78
2023-04-02T23:43:13.244Z,98984.41
2023-04-02T23:45:39.526Z,98987.38
2023-04-02T23:48:06.097Z,98984.91
2023-04-02T23:50:32.434Z,98975.59
2023-04-02T23:52:58.728Z,98979.78
2023-04-02T23:55:25.189Z,98981.94
2023-04-02T23:57:51.555Z,98983.09
